createdAt,value
2023-05-14T00:03:09.960Z,99738.09
2023-05-14T00:08:13.489Z,99744.19
2023-05-14T00:13:18.486Z,99732.06
2023-05-14T00:18:21.978Z,99743.38
2023-05-14T00:23:26.067Z,99736.44
2023-05-14T00:28:30.991Z,99738.19
2023-05-14T00:33:35.241Z,99732.97
2023-05-14T00:38:38.760Z,99739.94
2023-05-14T00:43:43.845Z,99740.78
2023-05-14T00:48:48.248Z,99745.09
2023-05-14T00:53:52.011Z,99752.91
2023-05-14T00:58:56.898Z,99746.78
2023-05-14T01:04:00.286Z,99754.56
2023-05-14T01:09:24.402Z,99746.66
2023-05-14T01:14:36.328Z,99761.38
2023-05-14T01:19:42.689Z,99763.09
2023-05-14T01:24:47.786Z,99764.00
2023-05-14T01:29:58.394Z,99767.47
2023-05-14T01:35:03.137Z,99767.50
2023-05-14T01:40:11.456Z,99766.63
2023-05-14T01:45:14.957Z,99773.56
2023-05-14T01:50:18.688Z,99781.34
2023-05-14T01:55:24.659Z,99777.84
2023-05-14T02:00:28.492Z,99781.41
2023-05-14T02:05:32.004Z,99781.44
2023-05-14T02:10:36.911Z,99792.75
2023-05-14T02:15:40.544Z,99788.41
2023-05-14T02:20:44.090Z,99796.25
2023-05-14T02:25:48.977Z,99794.53
2023-05-14T02:30:52.148Z,99805.81
2023-05-14T02:35:55.641Z,99808.38
2023-05-14T02:41:00.486Z,99807.53
2023-05-14T02:46:03.962Z,99812.75
2023-05-14T02:51:07.721Z,99810.19
2023-05-14T02:56:13.906Z,99811.03
2023-05-14T03:01:19.059Z,99819.75
2023-05-14T03:06:23.150Z,99813.69
2023-05-14T03:11:28.033Z,99823.19
2023-05-14T03:16:31.202Z,99817.78
2023-05-14T03:21:34.834Z,99825.44
2023-05-14T03:26:39.897Z,99832.31
2023-05-14T03:31:43.654Z,99833.22
2023-05-14T03:36:47.311Z,99832.25
2023-05-14T03:41:52.492Z,99829.47
2023-05-14T03:46:56.071Z,99829.09
2023-05-14T03:51:59.753Z,99835.47
2023-05-14T03:57:04.977Z,99848.44
2023-05-14T04:02:08.761Z,99838.19
2023-05-14T04:07:12.360Z,99846.56
2023-05-14T04:12:17.228Z,99845.00
2023-05-14T04:17:20.733Z,99852.66
2023-05-14T04:22:24.350Z,99846.63
2023-05-14T04:27:30.035Z,99844.78
2023-05-14T04:32:33.547Z,99851.00
2023-05-14T04:37:37.099Z,99848.13
2023-05-14T04:42:42.064Z,99847.91
2023-05-14T04:47:46.428Z,99848.63
2023-05-14T04:52:50.124Z,99847.78
2023-05-14T04:57:55.041Z,99845.16
2023-05-14T05:02:58.704Z,99837.44
2023-05-14T05:08:02.371Z,99847.66
2023-05-14T05:13:07.324Z,99854.53
2023-05-14T05:18:10.944Z,99854.72
2023-05-14T05:23:14.381Z,99857.28
2023-05-14T05:28:19.211Z,99856.75
2023-05-14T05:33:22.842Z,99852.09
2023-05-14T05:38:26.292Z,99852.66
2023-05-14T05:43:31.198Z,99850.38
2023-05-14T05:48:34.761Z,99847.88
2023-05-14T05:53:38.230Z,99855.41
2023-05-14T05:58:43.249Z,99834.59
2023-05-14T06:03:48.507Z,99842.56
2023-05-14T06:08:52.482Z,99835.84
2023-05-14T06:13:57.484Z,99836.47
2023-05-14T06:19:01.672Z,99836.31
2023-05-14T06:24:05.769Z,99821.19
2023-05-14T06:29:10.604Z,99803.34
2023-05-14T06:34:14.091Z,99813.31
2023-05-14T06:39:17.619Z,99805.97
2023-05-14T06:44:22.731Z,99816.75
2023-05-14T06:49:26.404Z,99815.88
2023-05-14T06:54:30.037Z,99805.25
2023-05-14T06:59:34.879Z,99830.28
2023-05-14T07:04:38.376Z,99826.34
2023-05-14T07:09:42.149Z,99848.16
2023-05-14T07:14:47.283Z,99843.28
2023-05-14T07:19:51.255Z,99846.09
2023-05-14T07:24:54.757Z,99852.38
2023-05-14T07:29:59.749Z,99861.03
2023-05-14T07:35:03.301Z,99857.25
2023-05-14T07:40:07.948Z,99854.44
2023-05-14T07:45:13.250Z,99849.19
2023-05-14T07:50:16.752Z,99866.53
2023-05-14T07:55:20.313Z,99857.91
2023-05-14T08:00:25.359Z,99854.75
2023-05-14T08:05:29.039Z,99862.03
2023-05-14T08:10:32.757Z,99869.75
2023-05-14T08:15:37.626Z,99859.41
2023-05-14T08:20:41.088Z,99864.84
2023-05-14T08:25:44.611Z,99867.31
2023-05-14T08:30:49.593Z,99855.81
2023-05-14T08:35:54.612Z,99866.78
2023-05-14T08:40:59.850Z,99865.28
2023-05-14T08:46:07.495Z,99861.47
2023-05-14T08:51:10.983Z,99870.41
2023-05-14T08:56:15.803Z,99866.53
2023-05-14T09:01:22.171Z,99864.44
2023-05-14T09:06:26.983Z,99866.56
2023-05-14T09:11:30.509Z,99865.19
2023-05-14T09:16:37.195Z,99863.38
2023-05-14T09:21:41.386Z,99860.22
2023-05-14T09:26:44.671Z,99863.47
2023-05-14T09:31:52.372Z,99866.25
2023-05-14T09:36:59.168Z,99866.47
2023-05-14T09:42:02.842Z,99869.19
2023-05-14T09:47:08.425Z,99853.44
2023-05-14T09:52:13.382Z,99857.19
2023-05-14T09:57:17.059Z,99854.09
2023-05-14T10:02:25.356Z,99845.66
2023-05-14T10:07:33.132Z,99851.19
2023-05-14T10:12:40.150Z,99855.63
2023-05-14T10:17:50.736Z,99837.38
2023-05-14T10:22:54.394Z,99852.34
2023-05-14T10:27:58.549Z,99849.75
2023-05-14T10:33:10.281Z,99846.72
2023-05-14T10:38:16.534Z,99844.53
2023-05-14T10:43:21.488Z,99812.22
2023-05-14T10:48:27.606Z,99841.44
2023-05-14T10:53:36.101Z,99841.81
2023-05-14T10:58:40.486Z,99839.09
2023-05-14T11:03:46.643Z,99827.75
2023-05-14T11:08:53.028Z,99831.84
2023-05-14T11:13:57.673Z,99826.13
2023-05-14T11:19:06.646Z,99833.22
2023-05-14T11:24:10.312Z,99825.81
2023-05-14T11:29:13.855Z,99831.47
2023-05-14T11:34:18.820Z,99837.41
2023-05-14T11:39:22.335Z,99845.84
2023-05-14T11:44:26.008Z,99833.19
2023-05-14T11:49:31.055Z,99832.84
2023-05-14T11:54:35.625Z,99833.91
2023-05-14T11:59:39.309Z,99825.47
2023-05-14T12:04:45.025Z,99829.31
2023-05-14T12:09:51.075Z,99822.81
2023-05-14T12:14:54.650Z,99817.81
2023-05-14T12:19:59.548Z,99819.13
2023-05-14T12:25:03.704Z,99823.59
2023-05-14T12:35:17.329Z,99815.56
2023-05-14T12:40:20.964Z,99806.88
2023-05-14T12:45:24.663Z,99802.47
2023-05-14T12:50:29.775Z,99822.75
2023-05-14T12:55:34.522Z,99809.91
2023-05-14T13:00:38.134Z,99820.03
2023-05-14T13:05:43.151Z,99816.16
2023-05-14T13:10:46.665Z,99813.16
2023-05-14T13:15:50.351Z,99817.22
2023-05-14T13:20:56.020Z,99823.28
2023-05-14T13:25:59.822Z,99813.59
2023-05-14T13:31:08.625Z,99819.41
2023-05-14T13:36:16.204Z,99822.78
2023-05-14T13:41:19.707Z,99830.09
2023-05-14T13:46:23.273Z,99830.09
2023-05-14T13:51:28.194Z,99822.47
2023-05-14T13:56:31.959Z,99830.41
2023-05-14T14:01:35.633Z,99823.53
2023-05-14T14:06:40.626Z,99818.63
2023-05-14T14:11:44.157Z,99830.06
2023-05-14T14:16:47.825Z,99821.19
2023-05-14T14:21:53.358Z,99831.94
2023-05-14T14:26:57.037Z,99826.81
2023-05-14T14:32:01.165Z,99823.56
2023-05-14T14:37:06.527Z,99814.16
2023-05-14T14:42:10.033Z,99818.56
2023-05-14T14:47:13.643Z,99816.97
2023-05-14T14:52:18.664Z,99820.88
2023-05-14T14:57:22.187Z,99817.91
2023-05-14T15:02:25.900Z,99825.50
2023-05-14T15:07:33.172Z,99820.13
2023-05-14T15:12:36.751Z,99813.75
2023-05-14T15:17:40.490Z,99812.47
2023-05-14T15:22:45.627Z,99809.84
2023-05-14T15:27:49.240Z,99810.47
2023-05-14T15:32:53.760Z,99809.66
2023-05-14T15:37:58.490Z,99809.97
2023-05-14T15:43:02.076Z,99813.88
2023-05-14T15:48:05.734Z,99805.06
2023-05-14T15:53:10.925Z,99801.19
2023-05-14T15:58:14.495Z,99814.84
2023-05-14T16:03:18.888Z,99805.53
2023-05-14T16:08:23.977Z,99811.78
2023-05-14T16:13:27.696Z,99808.97
2023-05-14T16:18:31.390Z,99818.88
2023-05-14T16:23:36.303Z,99820.59
2023-05-14T16:28:41.435Z,99817.06
2023-05-14T16:33:45.058Z,99807.91
2023-05-14T16:39:06.896Z,99814.72
2023-05-14T16:44:11.256Z,99815.22
2023-05-14T16:49:14.802Z,99825.09
2023-05-14T16:54:19.642Z,99825.38
2023-05-14T16:59:23.089Z,99825.69
2023-05-14T17:04:26.784Z,99832.22
2023-05-14T17:09:32.563Z,99837.50
2023-05-14T17:14:36.059Z,99841.28
2023-05-14T17:19:39.549Z,99836.28
2023-05-14T17:24:44.530Z,99843.44
2023-05-14T17:29:51.212Z,99841.97
2023-05-14T17:34:54.785Z,99846.59
2023-05-14T17:39:59.629Z,99850.34
2023-05-14T17:45:03.472Z,99855.75
2023-05-14T17:50:10.034Z,99863.81
2023-05-14T17:55:14.779Z,99864.03
2023-05-14T18:00:18.612Z,99866.78
2023-05-14T18:05:22.293Z,99864.25
2023-05-14T18:10:29.644Z,99859.97
2023-05-14T18:15:33.266Z,99870.53
2023-05-14T18:20:36.746Z,99868.84
2023-05-14T18:25:41.901Z,99881.06
2023-05-14T18:30:46.024Z,99881.13
2023-05-14T18:35:49.743Z,99861.25
2023-05-14T18:40:54.664Z,99877.75
2023-05-14T18:45:58.162Z,99876.06
2023-05-14T18:51:01.754Z,99883.06
2023-05-14T18:56:06.720Z,99880.50
2023-05-14T19:01:10.267Z,99883.13
2023-05-14T19:06:13.917Z,99877.91
2023-05-14T19:11:19.424Z,99880.50
2023-05-14T19:16:23.353Z,99885.72
2023-05-14T19:21:27.073Z,99878.75
2023-05-14T19:26:32.072Z,99888.28
2023-05-14T19:31:35.717Z,99893.47
2023-05-14T19:36:39.352Z,99889.97
2023-05-14T19:41:44.186Z,99885.56
2023-05-14T19:46:47.549Z,99892.44
2023-05-14T19:51:51.025Z,99895.81
2023-05-14T19:56:56.113Z,99894.06
2023-05-14T20:01:59.619Z,99890.53
2023-05-14T20:07:03.288Z,99873.97
2023-05-14T20:12:09.331Z,99876.56
2023-05-14T20:17:12.999Z,99883.50
2023-05-14T20:22:16.597Z,99889.53
2023-05-14T20:27:21.518Z,99895.56
2023-05-14T20:32:25.558Z,99886.81
2023-05-14T20:37:29.882Z,99886.75
2023-05-14T20:42:36.515Z,99883.25
2023-05-14T20:47:40.033Z,99867.53
2023-05-14T20:52:43.784Z,99893.50
2023-05-14T20:57:49.765Z,99889.16
2023-05-14T21:02:53.483Z,99889.06
2023-05-14T21:07:57.134Z,99889.88
2023-05-14T21:13:02.246Z,99885.47
2023-05-14T21:18:05.851Z,99894.06
2023-05-14T21:23:09.361Z,99892.22
2023-05-14T21:28:14.239Z,99889.56
2023-05-14T21:33:17.879Z,99891.19
2023-05-14T21:38:21.681Z,99880.69
2023-05-14T21:43:26.525Z,99893.63
2023-05-14T21:48:29.766Z,99892.63
2023-05-14T21:53:33.269Z,99892.47
2023-05-14T21:58:38.511Z,99889.78
2023-05-14T22:03:42.295Z,99895.69
2023-05-14T22:08:45.860Z,99891.25
2023-05-14T22:13:50.797Z,99899.78
2023-05-14T22:18:54.141Z,99896.22
2023-05-14T22:23:57.597Z,99887.47
2023-05-14T22:29:02.469Z,99888.31
2023-05-14T22:34:05.765Z,99894.22
2023-05-14T22:39:11.199Z,99896.63
2023-05-14T22:44:17.526Z,99900.03
2023-05-14T22:49:20.831Z,99904.31
2023-05-14T22:54:24.442Z,99899.88
2023-05-14T22:59:29.508Z,99894.53
2023-05-14T23:04:32.970Z,99898.84
2023-05-14T23:09:36.504Z,99899.78
2023-05-14T23:14:41.340Z,99890.16
2023-05-14T23:19:44.599Z,99903.97
2023-05-14T23:24:48.179Z,99898.72
2023-05-14T23:29:53.524Z,99912.47
2023-05-14T23:34:57.188Z,99898.34
2023-05-14T23:40:01.834Z,99912.22
2023-05-14T23:45:10.192Z,99909.63
2023-05-14T23:50:13.888Z,99901.75
2023-05-14T23:55:17.458Z,99907.75
